Time;durP1;ratioP1;P1;durP2;ratioP2;P2;SDS_P1;SDS_P2;PMS_P1;PMS_P2;Temp;Humidity;BMP_temperature;BMP_pressure;BME280_temperature;BME280_humidity;BME280_pressure;Samples;Min_cycle;Max_cycle;Signal;HPM_P1;HPM_P2
2021/03/31 00:01:34;;;;;;;;;;;;;;;20.31;32.89;102542.97;5108463;28;19975;-87
2021/03/31 00:03:59;;;;;;;;;;;;;;;20.28;32.98;102537.69;5069498;28;19980;-87
2021/03/31 00:06:24;;;;;;;;;;;;;;;20.21;33.12;102535.41;5086073;28;19927;-88
2021/03/31 00:08:49;;;;;;;;;;;;;;;19.56;34.30;102542.00;5086514;28;19935;-83
2021/03/31 00:11:15;;;;;;;;;;;;;;;19.96;33.49;102536.91;5086874;28;19927;-86
2021/03/31 00:13:42;;;;;;;;;;;;;;;20.00;33.45;102530.25;5085398;28;20055;-83
2021/03/31 00:16:08;;;;;;;;;;;;;;;20.10;33.36;102536.06;5104588;28;19942;-86
2021/03/31 00:18:33;;;;;;;;;;;;;;;19.86;33.61;102531.06;5087305;28;19924;-87
2021/03/31 00:21:00;;;;;;;;;;;;;;;19.95;33.65;102527.78;5105502;28;20014;-88
2021/03/31 00:23:26;;;;;;;;;;;;;;;20.02;33.55;102531.03;5105026;28;19916;-86
2021/03/31 00:25:52;;;;;;;;;;;;;;;19.98;33.58;102529.47;5105462;28;19907;-87
2021/03/31 00:28:17;;;;;;;;;;;;;;;20.01;33.21;102519.16;5105424;28;19917;-86
2021/03/31 00:30:43;;;;;;;;;;;;;;;19.34;34.83;102526.78;5103696;28;19928;-84
2021/03/31 00:33:09;;;;;;;;;;;;;;;19.65;34.19;102517.59;5086092;28;19920;-85
2021/03/31 00:35:34;;;;;;;;;;;;;;;19.86;33.77;102517.34;5085921;28;19920;-88
2021/03/31 00:37:59;;;;;;;;;;;;;;;19.72;34.30;102518.16;5104035;28;19919;-87
2021/03/31 00:40:26;;;;;;;;;;;;;;;19.67;34.24;102517.53;5086091;28;19996;-87
2021/03/31 00:42:52;;;;;;;;;;;;;;;19.37;34.68;102512.88;5103919;28;19916;-83
2021/03/31 00:45:17;;;;;;;;;;;;;;;19.36;35.08;102516.59;5103173;28;19907;-84
2021/03/31 00:47:42;;;;;;;;;;;;;;;19.30;35.25;102506.84;5084527;28;19920;-87
2021/03/31 00:50:10;;;;;;;;;;;;;;;19.04;35.61;102505.63;5102850;28;20440;-83
2021/03/31 00:52:36;;;;;;;;;;;;;;;19.24;35.23;102506.34;5084549;28;19916;-88
2021/03/31 00:55:01;;;;;;;;;;;;;;;19.20;35.27;102504.75;5103621;28;19974;-87
2021/03/31 00:57:27;;;;;;;;;;;;;;;19.21;35.19;102499.16;5086706;28;19912;-83
2021/03/31 00:59:52;;;;;;;;;;;;;;;19.21;34.98;102498.28;5086290;28;19941;-87
2021/03/31 01:02:17;;;;;;;;;;;;;;;19.28;34.92;102491.47;5085334;28;19923;-87
2021/03/31 01:04:42;;;;;;;;;;;;;;;19.09;35.37;102486.16;5103881;28;19939;-87
2021/03/31 01:07:08;;;;;;;;;;;;;;;18.99;35.54;102485.78;5086615;28;19920;-84
2021/03/31 01:09:33;;;;;;;;;;;;;;;19.09;35.38;102480.66;5103703;28;20006;-85
2021/03/31 01:12:19;;;;;;;;;;;;;;;18.94;35.43;102476.94;5087354;28;20461;-87
2021/03/31 01:15:00;;;;;;;;;;;;;;;18.88;35.61;102477.31;5086377;28;20284;-83
2021/03/31 01:17:48;;;;;;;;;;;;;;;19.20;35.04;102467.19;5103435;28;19938;-86
2021/03/31 01:20:23;;;;;;;;;;;;;;;19.23;34.66;102475.25;5072197;28;19920;-88
2021/03/31 01:23:03;;;;;;;;;;;;;;;18.95;35.48;102470.50;5104760;28;19918;-87
2021/03/31 01:25:31;;;;;;;;;;;;;;;18.63;36.43;102472.28;5086730;28;19916;-85
2021/03/31 01:27:56;;;;;;;;;;;;;;;18.71;36.21;102464.50;5104695;28;19917;-84
2021/03/31 01:30:21;;;;;;;;;;;;;;;18.65;36.20;102465.75;5105144;28;19938;-89
2021/03/31 01:33:14;;;;;;;;;;;;;;;18.70;36.02;102455.38;5105232;28;19938;-88
2021/03/31 01:35:40;;;;;;;;;;;;;;;18.83;35.54;102457.47;5085956;28;19916;-87
2021/03/31 01:38:07;;;;;;;;;;;;;;;18.90;35.30;102454.31;5070666;28;19920;-85
2021/03/31 01:40:38;;;;;;;;;;;;;;;19.06;34.83;102448.81;5105471;28;19967;-85
2021/03/31 01:43:08;;;;;;;;;;;;;;;19.03;35.25;102454.47;5105048;28;19923;-84
2021/03/31 01:45:34;;;;;;;;;;;;;;;18.93;35.05;102453.22;5086288;28;20400;-87
2021/03/31 01:48:08;;;;;;;;;;;;;;;18.83;35.42;102451.97;5086582;28;19927;-84
2021/03/31 01:50:33;;;;;;;;;;;;;;;18.58;35.75;102453.34;5104446;28;20388;-83
2021/03/31 01:53:00;;;;;;;;;;;;;;;18.62;35.54;102446.72;5104381;28;19916;-87
2021/03/31 01:55:25;;;;;;;;;;;;;;;18.66;35.48;102444.69;5104377;28;20372;-87
2021/03/31 01:57:51;;;;;;;;;;;;;;;18.77;35.38;102448.59;5087879;28;19927;-83
2021/03/31 02:00:19;;;;;;;;;;;;;;;18.40;36.20;102449.75;5106726;28;19920;-88
2021/03/31 02:02:47;;;;;;;;;;;;;;;18.51;35.64;102451.91;5087562;28;19924;-84
2021/03/31 02:05:14;;;;;;;;;;;;;;;18.56;36.04;102439.72;5111316;22;19924;-86
2021/03/31 02:07:40;;;;;;;;;;;;;;;18.58;35.76;102436.91;5088800;28;19931;-84
2021/03/31 02:10:09;;;;;;;;;;;;;;;18.65;35.49;102437.44;5071041;28;20401;-83
2021/03/31 02:12:34;;;;;;;;;;;;;;;18.61;35.54;102433.97;5070482;28;19920;-88
2021/03/31 02:15:00;;;;;;;;;;;;;;;18.67;35.57;102428.16;5067826;28;19927;-85
2021/03/31 02:17:26;;;;;;;;;;;;;;;18.32;36.57;102441.09;5103229;28;19916;-84
2021/03/31 02:19:53;;;;;;;;;;;;;;;18.49;35.94;102426.44;5106439;28;19924;-85
2021/03/31 02:22:25;;;;;;;;;;;;;;;18.24;35.66;102430.56;5084289;28;19924;-85
2021/03/31 02:24:50;;;;;;;;;;;;;;;18.50;35.44;102422.75;5102438;28;19939;-87
2021/03/31 02:27:16;;;;;;;;;;;;;;;18.26;36.12;102425.00;5105741;28;20365;-86
2021/03/31 02:29:44;;;;;;;;;;;;;;;18.11;36.25;102419.38;5088027;28;19928;-85
2021/03/31 02:32:11;;;;;;;;;;;;;;;18.44;35.57;102418.50;5105884;28;19900;-86
2021/03/31 02:34:36;;;;;;;;;;;;;;;18.29;35.65;102419.34;5107051;28;19924;-87
2021/03/31 02:37:03;;;;;;;;;;;;;;;18.52;35.28;102409.84;5105245;28;19923;-83
2021/03/31 02:39:29;;;;;;;;;;;;;;;18.41;35.62;102407.69;5104857;28;19920;-87
2021/03/31 02:41:55;;;;;;;;;;;;;;;18.35;35.67;102400.69;5104711;28;19926;-85
2021/03/31 02:44:21;;;;;;;;;;;;;;;18.04;36.28;102396.94;5105687;28;19980;-85
2021/03/31 02:46:47;;;;;;;;;;;;;;;18.10;36.27;102409.41;5106277;28;20327;-87
2021/03/31 02:49:13;;;;;;;;;;;;;;;18.31;35.86;102395.47;5106002;28;19920;-85
2021/03/31 02:51:39;;;;;;;;;;;;;;;18.20;35.94;102402.44;5105498;28;19976;-85
2021/03/31 02:54:06;;;;;;;;;;;;;;;18.33;35.63;102390.81;5105747;28;19947;-85
2021/03/31 02:56:32;;;;;;;;;;;;;;;18.37;35.61;102390.56;5104935;28;19923;-82
2021/03/31 02:58:59;;;;;;;;;;;;;;;18.20;35.81;102394.22;5104537;28;19920;-84
2021/03/31 03:01:25;;;;;;;;;;;;;;;18.12;36.13;102395.63;5104142;28;20051;-87
2021/03/31 03:03:52;;;;;;;;;;;;;;;17.97;36.39;102391.88;5085773;28;20376;-87
2021/03/31 03:06:18;;;;;;;;;;;;;;;18.02;36.35;102387.88;5104229;28;19928;-83
2021/03/31 03:08:43;;;;;;;;;;;;;;;17.87;36.45;102386.88;5104532;28;19923;-87
2021/03/31 03:11:09;;;;;;;;;;;;;;;17.79;36.75;102383.63;5103937;28;19920;-87
2021/03/31 03:13:34;;;;;;;;;;;;;;;17.75;36.70;102375.66;5085693;28;19923;-85
2021/03/31 03:16:00;;;;;;;;;;;;;;;17.81;36.66;102375.34;5103176;28;19916;-88
2021/03/31 03:18:26;;;;;;;;;;;;;;;17.76;36.66;102377.44;5104621;28;19931;-87
2021/03/31 03:20:51;;;;;;;;;;;;;;;17.48;37.07;102378.91;5104303;28;19916;-88
2021/03/31 03:23:17;;;;;;;;;;;;;;;17.15;37.71;102376.94;5104147;28;19920;-89
2021/03/31 03:25:46;;;;;;;;;;;;;;;17.27;37.92;102375.41;5104204;28;19923;-87
2021/03/31 03:28:12;;;;;;;;;;;;;;;17.55;37.19;102369.41;5104548;28;19951;-87
2021/03/31 03:30:38;;;;;;;;;;;;;;;17.74;37.17;102372.06;5104200;28;19920;-88
2021/03/31 03:33:04;;;;;;;;;;;;;;;17.75;37.05;102365.59;5085452;28;19951;-85
2021/03/31 03:35:30;;;;;;;;;;;;;;;17.63;36.98;102363.53;5104352;28;19924;-88
2021/03/31 03:37:56;;;;;;;;;;;;;;;17.48;37.19;102360.66;5104266;28;19923;-90
2021/03/31 03:40:23;;;;;;;;;;;;;;;17.43;37.35;102359.09;5105076;28;19916;-87
2021/03/31 03:42:48;;;;;;;;;;;;;;;17.57;37.10;102361.13;5104993;28;19920;-84
2021/03/31 03:45:13;;;;;;;;;;;;;;;17.62;36.76;102351.69;5107753;28;19916;-84
2021/03/31 03:47:39;;;;;;;;;;;;;;;17.68;36.88;102356.84;5089322;28;19928;-82
2021/03/31 03:50:09;;;;;;;;;;;;;;;17.70;36.87;102360.38;5105491;28;19916;-83
2021/03/31 03:52:35;;;;;;;;;;;;;;;17.29;37.77;102357.09;5104139;28;19922;-82
2021/03/31 03:55:00;;;;;;;;;;;;;;;17.51;36.98;102363.22;5084676;28;19959;-86
2021/03/31 03:57:26;;;;;;;;;;;;;;;17.36;37.23;102359.44;5085463;28;19912;-88
2021/03/31 03:59:52;;;;;;;;;;;;;;;17.21;37.39;102357.50;5086227;28;19927;-87
2021/03/31 04:02:17;;;;;;;;;;;;;;;17.38;37.07;102362.09;5109114;28;19916;-83
2021/03/31 04:04:43;;;;;;;;;;;;;;;17.54;36.85;102356.69;5090573;28;19931;-87
2021/03/31 04:07:08;;;;;;;;;;;;;;;17.08;37.83;102359.09;5090673;28;19920;-84
2021/03/31 04:09:33;;;;;;;;;;;;;;;17.17;37.36;102361.34;5107540;28;19916;-87
2021/03/31 04:11:59;;;;;;;;;;;;;;;17.09;37.73;102349.91;5105092;28;19991;-84
2021/03/31 04:14:25;;;;;;;;;;;;;;;17.44;36.97;102344.47;5106968;28;19923;-88
2021/03/31 04:16:51;;;;;;;;;;;;;;;17.34;36.74;102347.66;5103126;28;19923;-88
2021/03/31 04:19:18;;;;;;;;;;;;;;;17.15;37.39;102346.84;5085165;28;19926;-85
2021/03/31 04:21:44;;;;;;;;;;;;;;;17.17;37.88;102344.94;5102050;28;20493;-89
2021/03/31 04:24:10;;;;;;;;;;;;;;;17.17;37.59;102343.09;5101615;28;19916;-88
2021/03/31 04:26:36;;;;;;;;;;;;;;;16.47;39.38;102344.72;5102462;28;19920;-87
2021/03/31 04:29:01;;;;;;;;;;;;;;;16.69;38.77;102338.22;5086225;28;19916;-82
2021/03/31 04:31:28;;;;;;;;;;;;;;;17.11;37.75;102331.59;5104954;28;19927;-86
2021/03/31 04:33:54;;;;;;;;;;;;;;;17.14;37.16;102326.84;5104217;28;19900;-82
2021/03/31 04:36:20;;;;;;;;;;;;;;;17.14;36.62;102329.56;5105911;28;19938;-86
2021/03/31 04:38:46;;;;;;;;;;;;;;;17.24;37.03;102335.47;5087840;28;19963;-87
2021/03/31 04:41:11;;;;;;;;;;;;;;;17.06;37.64;102341.84;5088135;28;19916;-88
2021/03/31 04:43:38;;;;;;;;;;;;;;;16.94;37.89;102338.78;5088212;28;20014;-86
2021/03/31 04:46:04;;;;;;;;;;;;;;;16.64;38.86;102344.78;5086879;28;19938;-87
2021/03/31 04:48:29;;;;;;;;;;;;;;;16.60;38.75;102343.16;5087947;28;19959;-88
2021/03/31 04:50:56;;;;;;;;;;;;;;;16.63;38.58;102347.59;5106350;28;19920;-88
2021/03/31 04:53:22;;;;;;;;;;;;;;;17.02;37.71;102337.53;5094294;22;19970;-90
2021/03/31 04:55:48;;;;;;;;;;;;;;;17.09;37.31;102339.88;5085014;28;19928;-90
2021/03/31 04:58:15;;;;;;;;;;;;;;;16.99;37.63;102336.69;5104410;28;20006;-90
2021/03/31 05:00:40;;;;;;;;;;;;;;;16.98;37.54;102334.97;5069965;28;19939;-90
2021/03/31 05:03:14;;;;;;;;;;;;;;;16.97;37.58;102326.84;5103670;28;19974;-89
2021/03/31 05:05:52;;;;;;;;;;;;;;;17.14;37.01;102335.03;5086632;28;19992;-88
2021/03/31 05:08:17;;;;;;;;;;;;;;;16.97;36.88;102329.56;5103322;28;19986;-89
2021/03/31 05:10:43;;;;;;;;;;;;;;;17.02;37.17;102327.47;5083806;28;20369;-88
2021/03/31 05:13:08;;;;;;;;;;;;;;;16.92;37.37;102326.16;5084462;28;19923;-88
2021/03/31 05:15:47;;;;;;;;;;;;;;;16.82;37.61;102329.34;5067117;28;19923;-89
2021/03/31 05:18:13;;;;;;;;;;;;;;;17.01;37.22;102322.94;5083994;28;19967;-88
2021/03/31 05:20:38;;;;;;;;;;;;;;;17.02;37.52;102326.59;5088275;28;20319;-88
2021/03/31 05:23:03;;;;;;;;;;;;;;;16.98;37.48;102325.84;5091093;28;19916;-89
2021/03/31 05:25:32;;;;;;;;;;;;;;;16.97;37.42;102324.97;5092143;28;19961;-88
2021/03/31 05:27:57;;;;;;;;;;;;;;;17.07;37.37;102322.63;5089452;28;19966;-89
2021/03/31 05:30:23;;;;;;;;;;;;;;;16.91;37.52;102324.38;5086023;28;19916;-89
2021/03/31 05:32:52;;;;;;;;;;;;;;;16.97;37.39;102318.63;5085308;28;19916;-87
2021/03/31 05:35:18;;;;;;;;;;;;;;;17.01;37.54;102320.22;5084946;28;19985;-89
2021/03/31 05:37:44;;;;;;;;;;;;;;;17.11;37.20;102317.91;5085096;28;19916;-90
2021/03/31 05:40:09;;;;;;;;;;;;;;;17.19;37.17;102318.38;5084298;28;19938;-90
2021/03/31 05:42:36;;;;;;;;;;;;;;;17.05;36.92;102316.38;5083609;28;19916;-91
2021/03/31 05:45:04;;;;;;;;;;;;;;;17.08;37.36;102310.75;5086709;28;19923;-91
2021/03/31 05:47:35;;;;;;;;;;;;;;;17.12;36.96;102312.38;5067949;28;19931;-91
2021/03/31 05:50:06;;;;;;;;;;;;;;;17.17;36.93;102312.13;5084863;28;19916;-88
2021/03/31 05:52:31;;;;;;;;;;;;;;;17.25;36.76;102314.47;5084688;28;19916;-87
2021/03/31 05:54:57;;;;;;;;;;;;;;;17.32;36.87;102313.19;5084154;28;19931;-88
2021/03/31 05:57:25;;;;;;;;;;;;;;;17.51;36.66;102304.84;5083146;28;20372;-89
2021/03/31 05:59:51;;;;;;;;;;;;;;;17.62;36.23;102305.19;5084267;28;20391;-91
2021/03/31 06:02:17;;;;;;;;;;;;;;;17.85;35.87;102311.25;5104678;28;19979;-88
2021/03/31 06:04:44;;;;;;;;;;;;;;;17.89;35.74;102307.41;5076079;28;20005;-89
2021/03/31 06:07:10;;;;;;;;;;;;;;;17.86;35.96;102313.91;5079862;28;19986;-89
2021/03/31 06:09:55;;;;;;;;;;;;;;;17.79;35.95;102304.25;5082218;28;19911;-88
2021/03/31 06:12:27;;;;;;;;;;;;;;;16.73;39.50;102298.88;5083069;28;19920;-90
2021/03/31 06:14:52;;;;;;;;;;;;;;;17.66;37.30;102308.63;5083524;28;19916;-91
2021/03/31 06:17:17;;;;;;;;;;;;;;;18.20;35.98;102302.94;5086880;28;19916;-87
2021/03/31 06:19:44;;;;;;;;;;;;;;;18.37;35.29;102305.63;5085945;28;19979;-90
2021/03/31 06:22:41;;;;;;;;;;;;;;;18.29;35.69;102310.63;5087576;28;19922;-90
2021/03/31 06:25:09;;;;;;;;;;;;;;;18.50;35.58;102311.25;5085532;28;19979;-88
2021/03/31 06:27:36;;;;;;;;;;;;;;;18.25;36.21;102309.03;5130786;22;19923;-90
2021/03/31 06:30:08;;;;;;;;;;;;;;;18.38;35.58;102303.75;5043890;28;20011;-89
2021/03/31 06:32:40;;;;;;;;;;;;;;;17.59;36.57;102307.16;5043929;22;19990;-91
2021/03/31 06:35:28;;;;;;;;;;;;;;;18.67;34.80;102292.94;5021577;28;19929;-88
2021/03/31 06:38:07;;;;;;;;;;;;;;;19.43;33.19;102297.53;5024471;28;19924;-87
2021/03/31 06:40:46;;;;;;;;;;;;;;;19.83;33.19;102295.94;5007878;28;19988;-86
2021/03/31 06:43:23;;;;;;;;;;;;;;;19.98;33.21;102301.44;5023847;28;20013;-83
2021/03/31 06:46:06;;;;;;;;;;;;;;;19.99;33.13;102295.00;5024915;28;20290;-89
2021/03/31 06:48:35;;;;;;;;;;;;;;;19.87;32.78;102301.25;5025550;28;20294;-89
2021/03/31 06:51:19;;;;;;;;;;;;;;;19.97;32.34;102294.19;5026369;28;19963;-89
2021/03/31 06:53:48;;;;;;;;;;;;;;;20.27;31.42;102293.19;5024838;28;19917;-93
2021/03/31 06:56:14;;;;;;;;;;;;;;;20.64;30.82;102288.88;5025340;28;19917;-88
2021/03/31 06:58:44;;;;;;;;;;;;;;;20.88;30.88;102286.34;5025650;28;19917;-90
2021/03/31 07:01:22;;;;;;;;;;;;;;;21.01;31.15;102289.13;5028393;28;19918;-90
2021/03/31 07:14:45;;;;;;;;;;;;;;;21.60;30.19;102285.06;5438062;22;20393;-90
2021/03/31 07:17:26;;;;;;;;;;;;;;;21.52;30.16;102274.59;5079206;28;20382;-90
2021/03/31 07:23:06;;;;;;;;;;;;;;;21.93;29.63;102286.38;5710031;22;19952;-93
2021/03/31 07:28:15;;;;;;;;;;;;;;;20.70;30.89;102287.59;5143058;22;20305;-88
2021/03/31 07:30:41;;;;;;;;;;;;;;;21.25;30.31;102288.41;5061932;28;19916;-85
2021/03/31 07:33:19;;;;;;;;;;;;;;;21.22;29.96;102286.75;5062210;28;19913;-87
2021/03/31 07:35:45;;;;;;;;;;;;;;;20.43;31.35;102290.31;5062916;28;19916;-87
2021/03/31 07:38:12;;;;;;;;;;;;;;;21.02;30.65;102285.38;5063390;28;20259;-87
2021/03/31 07:40:37;;;;;;;;;;;;;;;21.79;29.78;102279.13;5081164;28;19916;-83
2021/03/31 07:43:34;;;;;;;;;;;;;;;22.20;29.42;102291.72;5063361;28;19924;-88
2021/03/31 07:46:00;;;;;;;;;;;;;;;20.99;31.20;102284.72;5035921;28;19935;-86
2021/03/31 07:48:25;;;;;;;;;;;;;;;21.49;30.49;102283.03;5056398;28;19971;-82
2021/03/31 07:50:51;;;;;;;;;;;;;;;21.93;29.98;102286.38;5064145;28;19924;-87
2021/03/31 07:53:16;;;;;;;;;;;;;;;21.18;31.32;102287.97;5054284;28;19917;-86
2021/03/31 07:55:45;;;;;;;;;;;;;;;22.12;30.41;102288.66;5045674;28;19990;-87
2021/03/31 07:58:14;;;;;;;;;;;;;;;22.75;29.59;102296.84;5043169;28;19931;-87
2021/03/31 08:00:51;;;;;;;;;;;;;;;22.59;29.88;102299.91;5043340;28;19917;-88
2021/03/31 08:03:20;;;;;;;;;;;;;;;22.28;30.50;102299.41;5044052;28;20038;-88
2021/03/31 08:06:05;;;;;;;;;;;;;;;23.29;29.13;102288.06;5042938;28;19921;-87
2021/03/31 08:08:31;;;;;;;;;;;;;;;23.69;28.35;102295.09;5041799;28;20131;-85
2021/03/31 08:10:57;;;;;;;;;;;;;;;24.24;27.63;102285.03;5040741;28;19913;-88
2021/03/31 08:13:34;;;;;;;;;;;;;;;24.27;27.89;102289.44;5041837;28;19917;-86
2021/03/31 08:16:00;;;;;;;;;;;;;;;23.64;28.14;102291.78;5042150;28;20399;-87
2021/03/31 08:18:26;;;;;;;;;;;;;;;24.22;27.08;102284.28;5039851;28;19924;-84
2021/03/31 08:20:52;;;;;;;;;;;;;;;23.04;28.58;102286.34;5038581;28;19995;-87
2021/03/31 08:23:37;;;;;;;;;;;;;;;23.53;28.40;102281.59;5040023;28;19917;-86
2021/03/31 08:26:25;;;;;;;;;;;;;;;23.39;28.11;102273.56;5053688;28;20004;-86
2021/03/31 08:28:51;;;;;;;;;;;;;;;23.16;28.86;102273.50;5052240;28;19927;-84
2021/03/31 08:31:20;;;;;;;;;;;;;;;24.15;28.05;102280.28;5059289;28;19916;-85
2021/03/31 08:33:46;;;;;;;;;;;;;;;23.49;28.57;102272.69;5060488;28;19962;-87
2021/03/31 08:36:12;;;;;;;;;;;;;;;24.46;27.62;102276.81;5077182;28;19916;-86
2021/03/31 08:38:37;;;;;;;;;;;;;;;24.47;27.65;102273.06;5061187;28;19916;-87
2021/03/31 08:41:15;;;;;;;;;;;;;;;23.31;29.83;102276.91;5061091;28;19939;-89
2021/03/31 08:43:42;;;;;;;;;;;;;;;24.92;28.27;102273.81;5062464;28;19916;-89
2021/03/31 08:46:07;;;;;;;;;;;;;;;24.18;29.39;102274.50;5062126;28;19917;-88
2021/03/31 08:48:36;;;;;;;;;;;;;;;24.57;29.01;102268.50;5043459;28;20015;-88
2021/03/31 08:51:06;;;;;;;;;;;;;;;24.36;28.69;102276.75;5041222;28;20004;-88
2021/03/31 08:53:33;;;;;;;;;;;;;;;24.66;28.70;102267.75;5042434;28;19924;-86
2021/03/31 08:55:58;;;;;;;;;;;;;;;25.53;27.87;102265.81;5049970;28;19916;-85
2021/03/31 08:58:25;;;;;;;;;;;;;;;25.59;27.63;102260.63;5051134;28;19916;-89
2021/03/31 09:00:51;;;;;;;;;;;;;;;26.02;26.53;102255.91;5071249;28;19955;-89
2021/03/31 09:03:19;;;;;;;;;;;;;;;25.41;27.96;102254.84;5055709;28;19917;-89
2021/03/31 09:05:56;;;;;;;;;;;;;;;25.68;26.10;102245.09;5051823;28;19924;-89
2021/03/31 09:08:22;;;;;;;;;;;;;;;25.86;25.90;102249.97;5064177;28;20266;-88
2021/03/31 09:11:05;;;;;;;;;;;;;;;25.36;27.57;102251.59;5065423;28;19928;-88
2021/03/31 09:13:32;;;;;;;;;;;;;;;26.83;25.87;102249.38;5063258;28;20016;-90
2021/03/31 09:16:02;;;;;;;;;;;;;;;26.07;25.84;102241.59;5055692;28;19912;-90
2021/03/31 09:21:08;;;;;;;;;;;;;;;25.64;25.06;102247.22;5358164;22;19928;-92
2021/03/31 09:23:52;;;;;;;;;;;;;;;25.53;25.34;102250.09;5062861;23;19929;-92
2021/03/31 09:26:26;;;;;;;;;;;;;;;26.52;24.03;102247.53;5017660;28;19928;-91
2021/03/31 09:28:55;;;;;;;;;;;;;;;27.03;23.79;102253.88;5012780;28;19967;-92
2021/03/31 09:31:31;;;;;;;;;;;;;;;27.23;23.89;102246.41;5016617;28;19948;-93
2021/03/31 09:34:26;;;;;;;;;;;;;;;;;;;;;
2021/03/31 09:37:21;;;;;;;;;;;;;;;27.98;23.18;102251.22;5046970;28;19956;-91
2021/03/31 09:39:59;;;;;;;;;;;;;;;27.50;23.72;102250.31;5017477;28;19921;-92
2021/03/31 09:42:31;;;;;;;;;;;;;;;28.36;22.43;102252.00;5017894;28;20013;-90
2021/03/31 09:45:08;;;;;;;;;;;;;;;28.07;22.51;102243.84;5048409;28;19921;-89
2021/03/31 09:47:34;;;;;;;;;;;;;;;28.07;23.11;102243.84;5011917;28;19936;-88
2021/03/31 09:50:04;;;;;;;;;;;;;;;27.91;23.26;102250.91;5045029;28;20016;-90
2021/03/31 09:52:31;;;;;;;;;;;;;;;28.21;22.92;102246.09;5028036;28;19913;-90
2021/03/31 09:55:04;;;;;;;;;;;;;;;28.73;22.24;102239.94;5044435;28;20385;-90
2021/03/31 09:57:37;;;;;;;;;;;;;;;28.95;22.04;102237.69;5029689;28;19921;-94
2021/03/31 10:00:04;;;;;;;;;;;;;;;29.33;21.68;102233.69;5029392;28;19923;-92
2021/03/31 10:02:30;;;;;;;;;;;;;;;29.48;22.05;102233.06;5024234;28;19967;-90
2021/03/31 10:04:58;;;;;;;;;;;;;;;28.55;22.13;102245.44;5042930;28;20271;-90
2021/03/31 10:07:24;;;;;;;;;;;;;;;29.52;21.26;102231.69;5028625;28;19917;-90
2021/03/31 10:09:50;;;;;;;;;;;;;;;28.84;21.89;102233.22;5005336;28;19992;-89
2021/03/31 10:12:32;;;;;;;;;;;;;;;29.19;21.54;102234.22;5019679;28;20001;-89
2021/03/31 10:14:58;;;;;;;;;;;;;;;28.22;22.80;102239.50;5039710;28;19967;-89
2021/03/31 10:20:49;;;;;;;;;;;;;;;29.65;21.07;102232.13;5042024;28;19912;-91
2021/03/31 10:23:25;;;;;;;;;;;;;;;29.68;20.44;102229.00;5046692;28;19948;-90
2021/03/31 10:25:50;;;;;;;;;;;;;;;28.16;21.59;102230.88;5025064;28;20277;-90
2021/03/31 10:29:03;;;;;;;;;;;;;;;;;;;;;
2021/03/31 10:31:28;;;;;;;;;;;;;;;28.27;21.50;102228.78;5049964;28;19929;-90
2021/03/31 10:37:12;;;;;;;;;;;;;;;29.95;19.58;102218.69;5035954;28;19917;-91
2021/03/31 10:48:32;;;;;;;;;;;;;;;31.26;17.80;102206.88;5042374;28;19928;-89
2021/03/31 10:51:05;;;;;;;;;;;;;;;30.42;17.26;102210.84;5040953;28;19981;-91
2021/03/31 10:53:33;;;;;;;;;;;;;;;30.43;17.47;102209.81;5036134;28;19971;-91
2021/03/31 10:56:00;;;;;;;;;;;;;;;30.77;17.39;102200.41;5021221;28;20001;-88
2021/03/31 10:58:26;;;;;;;;;;;;;;;30.03;18.05;102204.78;5027419;28;19916;-87
2021/03/31 11:00:53;;;;;;;;;;;;;;;29.43;18.59;102196.44;5028852;28;19964;-84
2021/03/31 11:03:18;;;;;;;;;;;;;;;29.56;19.01;102196.88;5025460;28;19980;-87
2021/03/31 11:05:46;;;;;;;;;;;;;;;30.53;17.99;102193.78;5030457;28;20546;-90
2021/03/31 11:08:16;;;;;;;;;;;;;;;30.24;19.14;102197.88;5031337;28;19929;-90
2021/03/31 11:10:41;;;;;;;;;;;;;;;29.50;19.50;102198.41;5027353;28;19923;-91
2021/03/31 11:13:06;;;;;;;;;;;;;;;30.79;18.30;102187.16;5028063;28;19953;-89
2021/03/31 11:15:32;;;;;;;;;;;;;;;31.48;17.82;102186.72;5027852;28;19905;-89
2021/03/31 11:18:05;;;;;;;;;;;;;;;31.51;17.83;102180.78;5025754;28;19917;-89
2021/03/31 11:26:06;;;;;;;;;;;;;;;30.45;18.36;102174.19;5027178;28;20020;-86
2021/03/31 11:28:31;;;;;;;;;;;;;;;31.75;16.37;102169.53;5002704;28;19921;-86
2021/03/31 11:30:57;;;;;;;;;;;;;;;29.96;17.20;102161.84;5003826;28;20386;-86
2021/03/31 11:33:25;;;;;;;;;;;;;;;30.71;17.09;102169.34;5002527;28;19917;-86
2021/03/31 11:35:51;;;;;;;;;;;;;;;30.88;17.71;102166.53;5013628;28;19921;-86
2021/03/31 11:38:16;;;;;;;;;;;;;;;29.97;17.62;102176.66;5023207;28;19924;-86
2021/03/31 11:40:42;;;;;;;;;;;;;;;29.62;17.75;102165.53;5024662;28;19992;-86
2021/03/31 11:43:07;;;;;;;;;;;;;;;30.36;16.44;102163.00;5028229;28;19944;-84
2021/03/31 11:45:33;;;;;;;;;;;;;;;31.16;16.18;102160.59;5041687;28;20206;-87
2021/03/31 11:47:58;;;;;;;;;;;;;;;30.40;16.83;102158.81;5026897;28;19924;-86
2021/03/31 11:50:25;;;;;;;;;;;;;;;30.71;15.76;102158.16;5044661;28;19924;-91
2021/03/31 11:52:54;;;;;;;;;;;;;;;31.63;15.50;102157.00;5047367;28;19932;-90
2021/03/31 11:55:20;;;;;;;;;;;;;;;30.16;15.39;102155.97;5027426;28;19928;-89
2021/03/31 11:57:45;;;;;;;;;;;;;;;30.63;14.86;102160.94;5046777;28;19905;-88
2021/03/31 12:00:14;;;;;;;;;;;;;;;30.69;15.10;102139.81;5046589;28;20084;-86
2021/03/31 12:02:39;;;;;;;;;;;;;;;29.87;14.09;102149.78;5042011;23;19925;-89
2021/03/31 12:05:05;;;;;;;;;;;;;;;30.62;13.42;102148.03;5049373;28;19928;-89
2021/03/31 12:07:30;;;;;;;;;;;;;;;31.03;15.34;102144.38;5062286;28;19960;-89
2021/03/31 12:09:55;;;;;;;;;;;;;;;30.58;16.02;102138.25;5043616;28;20224;-87
2021/03/31 12:12:26;;;;;;;;;;;;;;;32.26;14.67;102137.44;5046277;28;20431;-93
2021/03/31 12:14:51;;;;;;;;;;;;;;;32.08;14.74;102135.78;5043332;28;19917;-87
2021/03/31 12:17:17;;;;;;;;;;;;;;;31.56;15.56;102139.19;5060545;28;20396;-89
2021/03/31 12:19:42;;;;;;;;;;;;;;;30.90;16.00;102140.16;5044627;28;19923;-88
2021/03/31 12:22:08;;;;;;;;;;;;;;;31.46;14.74;102136.56;5045466;28;19924;-87
2021/03/31 12:24:33;;;;;;;;;;;;;;;32.54;13.76;102134.09;5043139;28;19938;-85
2021/03/31 12:27:03;;;;;;;;;;;;;;;32.31;14.89;102138.63;5030692;28;19956;-92
2021/03/31 12:29:29;;;;;;;;;;;;;;;31.93;14.13;102140.41;5065300;28;20016;-94
2021/03/31 12:31:55;;;;;;;;;;;;;;;31.58;14.32;102142.69;5059909;28;19955;-92
2021/03/31 12:34:20;;;;;;;;;;;;;;;33.10;13.53;102131.81;5044223;28;20019;-88
2021/03/31 12:36:46;;;;;;;;;;;;;;;32.62;13.47;102123.66;5041791;28;19960;-88
2021/03/31 12:39:11;;;;;;;;;;;;;;;31.95;14.21;102127.97;5049928;23;20015;-87
2021/03/31 12:41:36;;;;;;;;;;;;;;;31.39;14.55;102128.03;5026705;28;19924;-89
2021/03/31 12:44:02;;;;;;;;;;;;;;;31.97;14.42;102125.00;5061902;28;19918;-87
2021/03/31 12:46:30;;;;;;;;;;;;;;;30.93;14.81;102122.16;5037427;28;19917;-88
2021/03/31 12:48:57;;;;;;;;;;;;;;;31.43;15.27;102121.03;5052348;28;20406;-90
2021/03/31 12:54:22;;;;;;;;;;;;;;;32.07;14.30;102113.53;5055204;28;19924;-92
2021/03/31 12:56:47;;;;;;;;;;;;;;;32.69;13.83;102107.00;5031909;28;19917;-92
2021/03/31 12:59:13;;;;;;;;;;;;;;;31.47;15.81;102109.50;5032194;28;19962;-90
2021/03/31 13:01:39;;;;;;;;;;;;;;;32.08;14.99;102101.31;5033373;28;19920;-90
2021/03/31 13:04:08;;;;;;;;;;;;;;;32.27;15.29;102100.84;5029413;28;19916;-94
2021/03/31 13:06:37;;;;;;;;;;;;;;;31.91;15.93;102092.16;5041420;28;19921;-92
2021/03/31 13:09:13;;;;;;;;;;;;;;;32.75;15.77;102099.75;5031836;28;20392;-90
2021/03/31 13:11:38;;;;;;;;;;;;;;;32.18;16.69;102098.31;5063239;28;19920;-86
2021/03/31 13:14:17;;;;;;;;;;;;;;;34.23;14.47;102093.19;5036852;28;19916;-91
2021/03/31 13:16:54;;;;;;;;;;;;;;;33.38;14.78;102086.28;5035367;28;20350;-89
2021/03/31 13:30:28;;;;;;;;;;;;;;;33.58;13.57;102074.47;5056569;28;19974;-90
2021/03/31 13:33:13;;;;;;;;;;;;;;;33.08;15.44;102077.00;5027792;28;19925;-86
2021/03/31 13:38:38;;;;;;;;;;;;;;;33.65;12.84;102078.22;5047616;28;20184;-82
2021/03/31 13:41:04;;;;;;;;;;;;;;;33.44;13.97;102073.44;5046646;28;19924;-85
2021/03/31 13:43:29;;;;;;;;;;;;;;;33.50;13.48;102070.72;5031284;28;19928;-84